Aspinwall, Iowa
Current Conditions -  °F | °C
As of 8:35 PM on Tuesday 25 Nov 2014 (Local Time) from KDNS Reporting Station
Overcast Overcast  
Wind Chill: 23°   Ceiling: 5500
Heat Index: 34°   Visibility: 10mi
Dew Point: 19°   Wind: 18mph
Humidity: 56%   Direction: 160°SSE
Pressure: 29.89"   Gusts: 24mph
Location:  41.91°N, 95.14°W
Report Text: KDNS 260235Z AUTO 16016G21KT 10SM FEW048 BKN055 OVC065 01/M07 A2989 RMK AO2
Loading
Personal Weather Stations






























Interactive Weather Map New forecast layout! Learn more

10-Day Weather Forecast

Advertisements
Track Severe Weather on mobile